createdAt,value
2019-02-08T00:01:29.768Z,45.87
2019-02-08T00:04:00.727Z,45.33
2019-02-08T00:06:32.771Z,48.07
2019-02-08T00:09:04.856Z,46.73
2019-02-08T00:11:34.094Z,47.23
2019-02-08T00:14:06.596Z,46.37
2019-02-08T00:16:36.943Z,49.07
2019-02-08T00:19:07.876Z,47.37
2019-02-08T00:21:44.514Z,49.23
2019-02-08T00:24:22.035Z,47.47
2019-02-08T00:26:52.771Z,46.50
2019-02-08T00:29:22.021Z,45.93
2019-02-08T00:31:53.764Z,44.93
2019-02-08T00:34:22.990Z,45.43
2019-02-08T00:36:52.571Z,44.10
2019-02-08T00:39:27.800Z,45.73
2019-02-08T00:41:57.711Z,44.57
2019-02-08T00:44:28.344Z,43.73
2019-02-08T00:46:59.948Z,43.03
2019-02-08T00:49:36.751Z,43.30
2019-02-08T00:52:11.544Z,41.97
2019-02-08T00:54:44.801Z,41.83
2019-02-08T00:57:14.693Z,39.97
2019-02-08T00:59:44.970Z,42.30
2019-02-08T01:02:17.994Z,44.43
2019-02-08T01:04:48.273Z,43.00
2019-02-08T01:07:19.555Z,43.40
2019-02-08T01:09:52.032Z,42.40
2019-02-08T01:12:21.276Z,45.03
2019-02-08T01:14:52.479Z,43.47
2019-02-08T01:21:34.551Z,42.77
2019-02-08T01:24:04.285Z,43.63
2019-02-08T01:26:33.812Z,43.87
2019-02-08T01:29:03.766Z,44.33
2019-02-08T01:31:33.010Z,45.90
2019-02-08T01:34:05.877Z,44.03
2019-02-08T01:36:35.539Z,43.83
2019-02-08T01:39:09.104Z,44.63
2019-02-08T01:41:38.503Z,47.23
2019-02-08T01:44:08.095Z,45.60
2019-02-08T01:46:38.291Z,45.23
2019-02-08T01:49:07.839Z,45.13
2019-02-08T01:51:37.872Z,44.13
2019-02-08T01:54:10.422Z,44.93
2019-02-08T01:56:39.657Z,48.90
2019-02-08T01:59:12.278Z,46.87
2019-02-08T02:01:44.592Z,46.07
2019-02-08T02:04:18.191Z,47.70
2019-02-08T02:06:47.683Z,45.23
2019-02-08T02:09:18.190Z,46.13
2019-02-08T02:11:47.443Z,46.23
2019-02-08T02:14:16.694Z,45.57
2019-02-08T02:16:46.177Z,44.73
2019-02-08T02:19:16.034Z,44.93
2019-02-08T02:21:45.591Z,45.57
2019-02-08T02:24:16.042Z,45.20
2019-02-08T02:26:45.296Z,44.80
2019-02-08T02:29:15.486Z,47.00
2019-02-08T02:31:45.067Z,45.37
2019-02-08T02:34:14.624Z,43.40
2019-02-08T02:36:43.884Z,46.27
2019-02-08T02:39:13.129Z,45.00
2019-02-08T02:41:45.500Z,43.20
2019-02-08T02:44:14.799Z,41.40
2019-02-08T02:46:44.029Z,41.90
2019-02-08T02:49:14.796Z,40.90
2019-02-08T02:51:47.153Z,39.73
2019-02-08T02:54:16.408Z,40.03
2019-02-08T02:56:46.337Z,42.10
2019-02-08T02:59:16.889Z,43.73
2019-02-08T03:01:46.714Z,43.10
2019-02-08T03:04:16.242Z,43.37
2019-02-08T03:06:45.475Z,43.83
2019-02-08T03:09:15.033Z,45.97
2019-02-08T03:11:44.853Z,47.13
2019-02-08T03:14:14.128Z,48.47
2019-02-08T03:16:45.180Z,49.03
2019-02-08T03:19:14.782Z,49.53
2019-02-08T03:21:45.839Z,48.10
2019-02-08T03:24:16.241Z,51.30
2019-02-08T03:26:45.469Z,48.40
2019-02-08T03:29:16.055Z,47.77
2019-02-08T03:31:45.563Z,48.10
2019-02-08T03:34:14.810Z,48.50
2019-02-08T03:36:44.073Z,47.53
2019-02-08T03:39:13.327Z,48.70
2019-02-08T03:41:42.833Z,49.50
2019-02-08T03:44:12.844Z,50.90
2019-02-08T03:46:42.673Z,49.83
2019-02-08T03:49:12.243Z,50.73
2019-02-08T03:51:42.372Z,52.13
2019-02-08T03:54:20.829Z,50.60
2019-02-08T03:56:48.056Z,51.30
2019-02-08T03:59:17.601Z,51.10
2019-02-08T04:01:48.510Z,50.17
2019-02-08T04:04:18.715Z,52.27
2019-02-08T04:06:47.971Z,50.17
2019-02-08T04:09:17.178Z,51.13
2019-02-08T04:11:46.287Z,53.07
2019-02-08T04:14:15.509Z,52.07
2019-02-08T04:16:45.104Z,52.00
2019-02-08T04:19:21.911Z,52.30
2019-02-08T04:21:51.170Z,54.07
2019-02-08T04:24:29.493Z,51.47
2019-02-08T04:26:52.224Z,52.53
2019-02-08T04:29:21.797Z,52.07
2019-02-08T04:31:51.063Z,51.50
2019-02-08T04:34:20.313Z,49.10
2019-02-08T04:36:53.284Z,48.67
2019-02-08T04:39:22.507Z,49.73
2019-02-08T04:41:53.842Z,51.00
2019-02-08T04:44:23.086Z,53.37
2019-02-08T04:46:52.964Z,53.00
2019-02-08T04:49:22.191Z,51.63
2019-02-08T04:51:51.468Z,52.03
2019-02-08T04:54:20.937Z,53.67
2019-02-08T04:56:52.042Z,53.07
2019-02-08T04:59:22.942Z,52.67
2019-02-08T05:01:54.651Z,53.23
2019-02-08T05:04:23.897Z,53.43
2019-02-08T05:06:54.709Z,50.10
2019-02-08T05:09:24.252Z,51.27
2019-02-08T05:11:56.610Z,50.37
2019-02-08T05:14:26.108Z,51.43
2019-02-08T05:16:55.405Z,54.53
2019-02-08T05:19:25.808Z,54.40
2019-02-08T05:21:55.069Z,54.83
2019-02-08T05:24:24.676Z,53.17
2019-02-08T05:26:53.947Z,54.53
2019-02-08T05:29:23.182Z,53.13
2019-02-08T05:31:52.446Z,54.27
2019-02-08T05:34:21.682Z,52.80
2019-02-08T05:36:50.972Z,54.10
2019-02-08T05:39:20.224Z,54.77
2019-02-08T05:41:54.219Z,54.97
2019-02-08T05:44:24.824Z,54.43
2019-02-08T05:46:54.364Z,53.40
2019-02-08T05:49:25.084Z,55.83
2019-02-08T05:51:55.129Z,52.70
2019-02-08T05:54:30.314Z,54.40
2019-02-08T05:56:59.863Z,55.03
2019-02-08T05:59:30.196Z,57.57
2019-02-08T06:02:01.986Z,57.20
2019-02-08T06:04:31.243Z,57.00
2019-02-08T06:07:00.911Z,58.90
2019-02-08T06:09:30.169Z,57.17
2019-02-08T06:11:59.446Z,56.60
2019-02-08T06:14:29.791Z,57.27
2019-02-08T06:17:00.182Z,54.57
2019-02-08T06:19:32.025Z,59.13
2019-02-08T06:22:02.099Z,57.53
2019-02-08T06:24:32.590Z,57.40
2019-02-08T06:27:01.859Z,57.87
2019-02-08T06:29:31.180Z,57.53
2019-02-08T06:32:01.624Z,57.77
2019-02-08T06:34:32.071Z,56.77
2019-02-08T06:37:02.082Z,55.07
2019-02-08T06:39:31.594Z,55.80
2019-02-08T06:42:01.714Z,54.90
2019-02-08T06:44:33.218Z,54.13
2019-02-08T06:47:03.614Z,51.27
2019-02-08T06:49:32.842Z,51.40
2019-02-08T06:52:02.110Z,51.20
2019-02-08T06:54:32.156Z,53.47
2019-02-08T06:57:14.937Z,52.70
2019-02-08T07:00:03.983Z,51.40
2019-02-08T07:02:53.211Z,53.57
2019-02-08T07:05:41.406Z,54.63
2019-02-08T07:08:24.702Z,54.43
2019-02-08T07:11:14.864Z,57.30
2019-02-08T07:14:05.715Z,57.90
2019-02-08T07:16:56.168Z,56.80
2019-02-08T07:19:53.461Z,58.53
2019-02-08T07:22:51.225Z,55.27
2019-02-08T07:25:41.986Z,56.83
2019-02-08T07:28:19.916Z,58.50
2019-02-08T07:30:59.777Z,56.27
2019-02-08T07:33:43.103Z,59.37
2019-02-08T07:36:34.605Z,56.27
2019-02-08T07:39:20.409Z,58.77
2019-02-08T07:42:09.574Z,59.97
2019-02-08T07:44:59.172Z,56.93
2019-02-08T07:47:52.474Z,57.90
2019-02-08T07:50:36.164Z,58.93
2019-02-08T07:53:31.218Z,58.37
2019-02-08T07:56:22.329Z,56.27
2019-02-08T07:59:03.340Z,57.80
2019-02-08T08:01:53.323Z,58.77
2019-02-08T08:04:41.988Z,58.57
2019-02-08T08:07:25.208Z,56.83
2019-02-08T08:10:02.391Z,57.10
2019-02-08T08:12:51.537Z,59.77
2019-02-08T08:15:46.705Z,60.43
2019-02-08T08:18:35.063Z,57.33
2019-02-08T08:21:23.459Z,57.93
2019-02-08T08:24:18.461Z,56.47
2019-02-08T08:27:08.099Z,55.33
2019-02-08T08:29:54.334Z,54.00
2019-02-08T08:32:47.157Z,56.17
2019-02-08T08:35:52.671Z,56.27
2019-02-08T08:38:47.550Z,53.87
2019-02-08T08:42:06.798Z,54.70
2019-02-08T08:45:12.559Z,59.40
2019-02-08T08:48:22.426Z,56.53
2019-02-08T08:51:27.563Z,54.00
2019-02-08T08:54:32.034Z,51.70
2019-02-08T08:57:34.497Z,49.20
2019-02-08T09:00:50.865Z,46.90
2019-02-08T09:03:45.585Z,47.77
2019-02-08T09:06:45.675Z,45.73
2019-02-08T09:09:40.186Z,39.90
2019-02-08T09:12:46.384Z,39.20
2019-02-08T09:15:43.464Z,37.03
2019-02-08T09:18:47.578Z,38.57
2019-02-08T09:21:47.242Z,38.80
2019-02-08T09:25:01.620Z,38.80
2019-02-08T09:28:04.830Z,39.80
2019-02-08T09:31:17.235Z,38.13
2019-02-08T09:34:33.206Z,38.43
2019-02-08T09:37:54.735Z,37.77
2019-02-08T09:41:30.490Z,34.97
2019-02-08T09:44:55.090Z,36.13
2019-02-08T09:48:01.367Z,35.43
2019-02-08T09:51:03.739Z,35.33
2019-02-08T09:54:12.467Z,35.17
2019-02-08T09:57:37.746Z,34.07
2019-02-08T10:00:17.537Z,33.20
2019-02-08T10:03:25.019Z,34.80
2019-02-08T10:06:31.198Z,34.47
2019-02-08T10:09:26.196Z,32.53
2019-02-08T10:12:50.863Z,34.53
2019-02-08T10:15:51.652Z,33.63
2019-02-08T10:19:01.272Z,33.90
2019-02-08T10:22:24.764Z,32.17
2019-02-08T10:25:30.188Z,30.93
2019-02-08T10:28:36.385Z,29.93
2019-02-08T10:32:07.994Z,30.80
2019-02-08T10:35:10.484Z,27.90
2019-02-08T10:38:36.181Z,28.13
2019-02-08T10:41:47.038Z,27.83
2019-02-08T10:44:44.891Z,27.67
2019-02-08T10:47:50.007Z,27.47
2019-02-08T10:50:53.219Z,27.20
2019-02-08T10:54:28.255Z,28.20
2019-02-08T10:57:57.053Z,26.20
2019-02-08T11:01:13.298Z,25.70
2019-02-08T11:04:22.873Z,24.87
2019-02-08T11:07:30.143Z,24.33
2019-02-08T11:10:29.622Z,24.27
2019-02-08T11:13:34.633Z,24.93
2019-02-08T11:16:33.984Z,25.17
2019-02-08T11:19:23.587Z,26.43
2019-02-08T11:21:54.080Z,26.60
2019-02-08T11:24:25.006Z,27.17
2019-02-08T11:27:00.164Z,26.57
2019-02-08T11:29:30.702Z,27.97
2019-02-08T11:32:01.063Z,28.47
2019-02-08T11:34:32.002Z,27.70
2019-02-08T11:37:04.279Z,28.13
2019-02-08T11:39:35.675Z,27.50
2019-02-08T11:42:06.240Z,28.20
2019-02-08T11:44:36.568Z,27.10
2019-02-08T11:47:08.313Z,25.63
2019-02-08T11:49:38.860Z,27.70
2019-02-08T11:52:09.358Z,26.30
2019-02-08T11:54:39.643Z,25.93
2019-02-08T11:57:11.020Z,26.90
2019-02-08T11:59:40.299Z,25.37
2019-02-08T12:02:11.477Z,27.23
2019-02-08T12:04:40.919Z,25.43
2019-02-08T12:07:10.172Z,25.67
2019-02-08T12:09:42.740Z,24.97
2019-02-08T12:12:12.268Z,24.80
2019-02-08T12:14:44.272Z,23.87
2019-02-08T12:17:14.923Z,24.53
2019-02-08T12:19:45.826Z,24.70
2019-02-08T12:22:15.373Z,23.10
2019-02-08T12:24:44.650Z,21.33
2019-02-08T12:27:13.900Z,21.73
2019-02-08T12:29:45.840Z,20.17
2019-02-08T12:32:15.754Z,20.20
2019-02-08T12:34:47.298Z,21.87
2019-02-08T12:37:25.393Z,20.43
2019-02-08T12:39:54.972Z,20.80
2019-02-08T12:42:26.528Z,20.20
2019-02-08T12:44:59.335Z,19.20
2019-02-08T12:47:28.628Z,18.57
2019-02-08T12:49:58.219Z,19.43
2019-02-08T12:52:27.892Z,18.73
2019-02-08T12:54:57.132Z,17.93
2019-02-08T12:57:27.545Z,18.73
2019-02-08T12:59:57.651Z,17.50
2019-02-08T13:02:27.424Z,17.50
2019-02-08T13:05:00.899Z,17.93
2019-02-08T13:07:34.243Z,18.33
2019-02-08T13:10:05.695Z,17.90
2019-02-08T13:12:35.044Z,19.33
2019-02-08T13:15:07.538Z,19.70
2019-02-08T13:17:37.621Z,20.07
2019-02-08T13:20:11.155Z,19.80
2019-02-08T13:22:40.770Z,20.83
2019-02-08T13:25:14.587Z,20.90
2019-02-08T13:27:46.761Z,20.87
2019-02-08T13:30:27.432Z,19.23
2019-02-08T13:32:57.096Z,18.73
2019-02-08T13:35:26.724Z,19.47
2019-02-08T13:37:56.780Z,19.07
2019-02-08T13:40:27.653Z,18.10
2019-02-08T13:42:59.300Z,17.27
2019-02-08T13:45:30.158Z,16.53
2019-02-08T13:48:02.892Z,16.10
2019-02-08T13:50:37.443Z,15.53
2019-02-08T13:53:06.981Z,15.43
2019-02-08T13:55:37.636Z,16.10
2019-02-08T13:58:07.902Z,16.10
2019-02-08T14:00:39.073Z,15.57
2019-02-08T14:03:11.990Z,15.13
2019-02-08T14:05:41.403Z,15.10
2019-02-08T14:08:12.215Z,14.53
2019-02-08T14:10:44.706Z,14.40
2019-02-08T14:13:16.770Z,14.73
2019-02-08T14:15:46.009Z,14.73
2019-02-08T14:18:15.611Z,14.23
2019-02-08T14:20:45.099Z,13.63
2019-02-08T14:23:16.641Z,14.07
2019-02-08T14:25:47.072Z,12.70
2019-02-08T14:28:16.334Z,12.33
2019-02-08T14:30:48.334Z,12.47
2019-02-08T14:33:17.610Z,12.30
2019-02-08T14:35:48.606Z,13.27
2019-02-08T14:38:23.749Z,12.37
2019-02-08T14:40:53.010Z,12.00
2019-02-08T14:43:23.050Z,12.10
2019-02-08T14:45:54.980Z,13.83
2019-02-08T14:48:25.278Z,13.10
2019-02-08T14:51:01.583Z,12.40
2019-02-08T14:53:30.895Z,12.70
2019-02-08T14:56:00.992Z,12.27
2019-02-08T14:58:35.102Z,12.77
2019-02-08T15:01:06.590Z,12.93
2019-02-08T15:03:43.834Z,12.97
2019-02-08T15:06:13.554Z,12.30
2019-02-08T15:08:46.113Z,13.10
2019-02-08T15:11:15.596Z,12.73
2019-02-08T15:13:45.446Z,14.43
2019-02-08T15:16:19.433Z,19.00
2019-02-08T15:18:48.706Z,18.83
2019-02-08T15:21:19.512Z,20.53
2019-02-08T15:23:50.208Z,18.23
2019-02-08T15:26:19.443Z,32.50
2019-02-08T15:28:50.435Z,37.53
2019-02-08T15:31:23.650Z,26.53
2019-02-08T15:33:56.321Z,21.10
2019-02-08T15:36:26.284Z,18.27
2019-02-08T15:38:57.977Z,16.43
2019-02-08T15:41:28.999Z,14.27
2019-02-08T15:43:59.911Z,14.37
2019-02-08T15:46:32.688Z,15.23
2019-02-08T15:49:02.345Z,13.87
2019-02-08T15:51:34.935Z,13.53
2019-02-08T15:54:08.036Z,13.97
2019-02-08T15:56:38.689Z,13.23
2019-02-08T15:59:07.931Z,14.47
2019-02-08T16:01:37.478Z,15.23
2019-02-08T16:04:08.808Z,13.93
2019-02-08T16:06:38.037Z,13.87
2019-02-08T16:09:14.128Z,13.13
2019-02-08T16:11:43.277Z,14.27
2019-02-08T16:14:20.473Z,13.67
2019-02-08T16:16:51.608Z,13.57
2019-02-08T16:19:24.141Z,14.83
2019-02-08T16:21:53.379Z,14.13
2019-02-08T16:24:23.790Z,13.33
2019-02-08T16:26:53.055Z,14.57
2019-02-08T16:29:24.636Z,13.37
2019-02-08T16:31:55.780Z,13.17
2019-02-08T16:34:25.515Z,14.00
2019-02-08T16:37:03.533Z,13.63
2019-02-08T16:39:29.924Z,14.33
2019-02-08T16:42:11.000Z,14.50
2019-02-08T16:44:41.933Z,14.93
2019-02-08T16:47:12.161Z,14.17
2019-02-08T16:49:43.201Z,14.33
2019-02-08T16:52:14.246Z,14.90
2019-02-08T16:54:45.022Z,14.13
2019-02-08T16:57:14.580Z,14.13
2019-02-08T16:59:44.712Z,13.40
2019-02-08T17:02:17.575Z,13.73
2019-02-08T17:04:46.812Z,14.00
2019-02-08T17:07:20.324Z,13.87
2019-02-08T17:09:49.558Z,13.03
2019-02-08T17:12:22.109Z,14.77
2019-02-08T17:14:51.658Z,15.53
2019-02-08T17:17:21.950Z,14.83
2019-02-08T17:19:53.819Z,16.53
2019-02-08T17:22:24.013Z,20.47
2019-02-08T17:24:53.823Z,15.17
2019-02-08T17:27:23.798Z,16.70
2019-02-08T17:29:53.442Z,16.10
2019-02-08T17:32:22.946Z,15.13
2019-02-08T17:35:04.805Z,16.40
2019-02-08T17:37:37.103Z,15.90
2019-02-08T17:40:08.886Z,15.17
2019-02-08T17:42:38.138Z,15.30
2019-02-08T17:45:13.627Z,16.93
2019-02-08T17:47:42.906Z,16.13
2019-02-08T17:50:16.350Z,22.73
2019-02-08T17:52:45.600Z,16.53
2019-02-08T17:55:17.049Z,18.00
2019-02-08T17:57:46.484Z,15.70
2019-02-08T18:00:22.558Z,15.83
2019-02-08T18:02:51.809Z,17.90
2019-02-08T18:05:21.053Z,18.20
2019-02-08T18:07:50.556Z,17.23
2019-02-08T18:10:24.385Z,17.70
2019-02-08T18:13:01.566Z,17.33
2019-02-08T18:15:34.297Z,21.07
2019-02-08T18:18:05.985Z,21.23
2019-02-08T18:20:38.491Z,18.93
2019-02-08T18:23:10.431Z,21.17
2019-02-08T18:25:42.855Z,18.03
2019-02-08T18:28:12.603Z,17.57
2019-02-08T18:30:42.173Z,17.17
2019-02-08T18:33:12.238Z,17.53
2019-02-08T18:35:45.041Z,16.50
2019-02-08T18:38:15.521Z,16.63
2019-02-08T18:40:47.163Z,18.30
2019-02-08T18:43:21.512Z,19.23
2019-02-08T18:45:51.128Z,26.73
2019-02-08T18:48:23.860Z,18.57
2019-02-08T18:50:55.439Z,19.37
2019-02-08T18:53:26.612Z,20.03
2019-02-08T18:55:58.647Z,19.67
2019-02-08T18:58:29.371Z,22.67
2019-02-08T19:00:59.013Z,20.10
2019-02-08T19:03:31.561Z,20.73
2019-02-08T19:06:01.375Z,20.97
2019-02-08T19:08:34.397Z,21.70
2019-02-08T19:11:07.024Z,20.87
2019-02-08T19:13:38.779Z,20.03
2019-02-08T19:16:09.364Z,19.30
2019-02-08T19:18:39.743Z,19.13
2019-02-08T19:21:10.099Z,27.73
2019-02-08T19:23:47.020Z,20.97
2019-02-08T19:26:16.260Z,22.40
2019-02-08T19:28:46.829Z,20.73
2019-02-08T19:31:16.686Z,19.60
2019-02-08T19:33:47.956Z,19.00
2019-02-08T19:36:17.863Z,18.13
2019-02-08T19:38:48.626Z,18.83
2019-02-08T19:41:20.494Z,18.63
2019-02-08T19:43:50.677Z,18.50
2019-02-08T19:46:20.727Z,19.20
2019-02-08T19:48:50.870Z,19.23
2019-02-08T19:51:21.800Z,18.63
2019-02-08T19:53:54.778Z,18.80
2019-02-08T19:56:28.417Z,19.17
2019-02-08T19:58:57.973Z,19.47
2019-02-08T20:01:30.983Z,19.90
2019-02-08T20:04:00.954Z,20.13
2019-02-08T20:06:35.902Z,18.90
2019-02-08T20:09:09.756Z,19.30
2019-02-08T20:11:39.984Z,18.83
2019-02-08T20:14:09.244Z,19.33
2019-02-08T20:16:38.813Z,20.80
2019-02-08T20:19:09.753Z,20.90
2019-02-08T20:21:42.160Z,20.17
2019-02-08T20:24:14.768Z,19.07
2019-02-08T20:26:47.876Z,19.77
2019-02-08T20:29:20.697Z,19.60
2019-02-08T20:31:54.870Z,18.40
2019-02-08T20:34:24.885Z,18.57
2019-02-08T20:36:54.143Z,18.30
2019-02-08T20:39:27.319Z,17.97
2019-02-08T20:41:57.781Z,17.40
2019-02-08T20:44:29.301Z,18.27
2019-02-08T20:47:00.446Z,18.23
2019-02-08T20:49:30.001Z,16.90
2019-02-08T20:52:03.306Z,18.87
2019-02-08T20:54:32.840Z,17.33
2019-02-08T20:57:02.082Z,17.73
2019-02-08T20:59:32.369Z,18.03
2019-02-08T21:02:01.604Z,26.53
2019-02-08T21:04:33.513Z,20.50
2019-02-08T21:07:05.024Z,23.57
2019-02-08T21:09:36.574Z,19.47
2019-02-08T21:12:11.461Z,39.90
2019-02-08T21:14:41.901Z,34.67
2019-02-08T21:17:19.025Z,46.40
2019-02-08T21:19:48.685Z,48.10
2019-02-08T21:22:19.319Z,118.40
2019-02-08T21:24:51.372Z,44.17
2019-02-08T21:27:23.372Z,58.57
2019-02-08T21:29:54.253Z,17.97
2019-02-08T21:32:23.774Z,22.47
2019-02-08T21:34:53.348Z,20.63
2019-02-08T21:37:24.694Z,19.43
2019-02-08T21:39:53.945Z,29.27
2019-02-08T21:42:27.841Z,22.27
2019-02-08T21:44:57.343Z,21.50
2019-02-08T21:47:26.590Z,34.50
2019-02-08T21:49:56.447Z,16.07
2019-02-08T21:52:26.943Z,50.97
2019-02-08T21:54:59.550Z,30.53
2019-02-08T21:57:29.330Z,49.13
2019-02-08T22:00:02.524Z,17.13
2019-02-08T22:02:33.098Z,23.23
2019-02-08T22:05:17.804Z,24.03
2019-02-08T22:07:47.542Z,28.17
2019-02-08T22:10:17.167Z,17.53
2019-02-08T22:13:38.801Z,14.87
2019-02-08T22:16:08.761Z,14.17
2019-02-08T22:18:38.311Z,16.17
2019-02-08T22:21:07.608Z,14.57
2019-02-08T22:23:38.725Z,36.77
2019-02-08T22:26:26.365Z,24.33
2019-02-08T22:28:55.417Z,18.97
2019-02-08T22:31:26.007Z,21.60
2019-02-08T22:33:56.763Z,24.00
2019-02-08T22:36:27.030Z,27.67
2019-02-08T22:38:59.033Z,21.00
2019-02-08T22:41:35.958Z,20.80
2019-02-08T22:44:07.849Z,18.27
2019-02-08T22:46:37.355Z,16.73
2019-02-08T22:49:07.350Z,17.63
2019-02-08T22:51:44.139Z,19.83
2019-02-08T22:54:16.282Z,18.27
2019-02-08T22:56:47.834Z,20.93
2019-02-08T22:59:21.793Z,18.77
2019-02-08T23:01:53.925Z,17.70
2019-02-08T23:04:23.923Z,21.67
2019-02-08T23:07:00.565Z,17.97
2019-02-08T23:09:32.040Z,18.47
2019-02-08T23:12:02.091Z,16.23
2019-02-08T23:14:33.001Z,20.53
2019-02-08T23:17:03.442Z,18.90
2019-02-08T23:19:42.372Z,18.63
2019-02-08T23:22:17.227Z,18.97
2019-02-08T23:24:50.921Z,19.80
2019-02-08T23:27:25.150Z,19.10
2019-02-08T23:29:56.305Z,19.97
2019-02-08T23:32:27.949Z,18.47
2019-02-08T23:35:01.698Z,17.97
2019-02-08T23:37:33.072Z,17.47
2019-02-08T23:40:02.928Z,19.07
2019-02-08T23:42:36.127Z,18.00
2019-02-08T23:45:07.400Z,17.30
2019-02-08T23:47:36.628Z,17.07
2019-02-08T23:50:13.451Z,18.47
2019-02-08T23:52:46.727Z,22.10
2019-02-08T23:55:17.374Z,15.60
